createdAt,value
2017-08-24T00:00:47.751Z,24.21
2017-08-24T00:01:57.376Z,24.28
2017-08-24T00:03:06.989Z,24.22
2017-08-24T00:04:16.920Z,24.18
2017-08-24T00:05:26.854Z,24.24
2017-08-24T00:06:36.500Z,24.18
2017-08-24T00:07:46.209Z,24.08
2017-08-24T00:08:56.121Z,24.16
2017-08-24T00:10:06.034Z,24.2
2017-08-24T00:11:16.072Z,24.06
2017-08-24T00:12:25.728Z,24.09
2017-08-24T00:13:35.347Z,24.09
2017-08-24T00:14:44.974Z,24.18
2017-08-24T00:15:54.603Z,24.13
2017-08-24T00:17:05.119Z,24.09
2017-08-24T00:18:15.350Z,24.18
2017-08-24T00:19:25.589Z,24.09
2017-08-24T00:20:35.513Z,24.15
2017-08-24T00:21:45.117Z,24.15
2017-08-24T00:22:55.406Z,24.15
2017-08-24T00:24:05.030Z,24.09
2017-08-24T00:25:14.947Z,24.08
2017-08-24T00:26:25.169Z,24.05
2017-08-24T00:27:35.401Z,24.2
2017-08-24T00:28:45.379Z,24.13
2017-08-24T00:29:55.308Z,24.08
2017-08-24T00:31:05.231Z,24.12
2017-08-24T00:32:14.849Z,24.16
2017-08-24T00:33:24.776Z,24.15
2017-08-24T00:34:34.988Z,24.09
2017-08-24T00:35:44.605Z,24.16
2017-08-24T00:36:54.524Z,24.1
2017-08-24T00:38:04.445Z,23.97
2017-08-24T00:39:13.451Z,24.08
2017-08-24T00:40:23.715Z,24.09
2017-08-24T00:41:33.976Z,24.1
2017-08-24T00:42:43.901Z,24.08
2017-08-24T00:43:54.131Z,24.05
2017-08-24T00:45:04.058Z,24.05
2017-08-24T00:46:13.509Z,23.91
2017-08-24T00:47:23.495Z,23.95
2017-08-24T00:48:33.407Z,23.91
2017-08-24T00:49:43.082Z,24
2017-08-24T00:50:52.751Z,23.93
2017-08-24T00:52:03.061Z,23.95
2017-08-24T00:53:12.959Z,23.98
2017-08-24T00:54:22.899Z,23.95
2017-08-24T00:55:32.827Z,23.95
2017-08-24T00:56:43.055Z,23.95
2017-08-24T00:57:53.296Z,23.97
2017-08-24T00:59:02.906Z,23.94
2017-08-24T01:00:12.530Z,23.95
2017-08-24T01:01:22.769Z,23.93
2017-08-24T01:02:32.693Z,23.9
2017-08-24T01:03:42.707Z,23.94
2017-08-24T01:04:52.630Z,23.93
2017-08-24T01:06:02.233Z,23.9
2017-08-24T01:07:11.882Z,23.98
2017-08-24T01:08:21.191Z,23.95
2017-08-24T01:09:31.419Z,24
2017-08-24T01:10:41.356Z,23.98
2017-08-24T01:11:51.589Z,24.02
2017-08-24T01:13:00.922Z,23.93
2017-08-24T01:14:10.905Z,24.03
2017-08-24T01:15:20.874Z,23.94
2017-08-24T01:16:30.489Z,24
2017-08-24T01:17:40.140Z,24.05
2017-08-24T01:18:50.391Z,23.98
2017-08-24T01:19:59.413Z,24.08
2017-08-24T01:21:09.042Z,24.08
2017-08-24T01:22:18.986Z,24.03
2017-08-24T01:23:28.592Z,24.09
2017-08-24T01:24:38.810Z,24.09
2017-08-24T01:25:49.054Z,24.05
2017-08-24T01:26:58.528Z,24.05
2017-08-24T01:28:08.766Z,24.06
2017-08-24T01:29:18.684Z,24
2017-08-24T01:30:28.901Z,23.9
2017-08-24T01:31:38.820Z,23.95
2017-08-24T01:32:48.431Z,23.9
2017-08-24T01:33:58.347Z,23.98
2017-08-24T01:35:07.973Z,24
2017-08-24T01:36:18.207Z,23.91
2017-08-24T01:37:28.431Z,23.9
2017-08-24T01:38:38.650Z,23.91
2017-08-24T01:39:48.569Z,23.97
2017-08-24T01:40:58.789Z,23.93
2017-08-24T01:42:09.029Z,23.88
2017-08-24T01:43:18.950Z,23.84
2017-08-24T01:44:29.264Z,23.9
2017-08-24T01:45:38.882Z,23.9
2017-08-24T01:46:48.797Z,23.83
2017-08-24T01:47:58.442Z,23.84
2017-08-24T01:49:08.366Z,23.83
2017-08-24T01:50:18.299Z,23.8
2017-08-24T01:51:28.519Z,23.84
2017-08-24T01:52:38.135Z,23.88
2017-08-24T01:53:48.460Z,23.85
2017-08-24T01:54:58.449Z,23.97
2017-08-24T01:56:08.511Z,23.88
2017-08-24T01:57:18.742Z,23.9
2017-08-24T01:58:28.979Z,23.88
2017-08-24T01:59:39.196Z,23.79
2017-08-24T02:00:49.136Z,23.87
2017-08-24T02:01:59.054Z,23.87
2017-08-24T02:03:08.971Z,23.9
2017-08-24T02:04:18.732Z,23.85
2017-08-24T02:05:28.649Z,23.79
2017-08-24T02:06:38.011Z,23.8
2017-08-24T02:07:48.600Z,23.79
2017-08-24T02:08:57.901Z,23.78
2017-08-24T02:10:07.215Z,23.79
2017-08-24T02:11:17.143Z,23.72
2017-08-24T02:12:27.092Z,23.7
2017-08-24T02:13:36.716Z,23.8
2017-08-24T02:14:46.339Z,23.75
2017-08-24T02:15:55.982Z,23.72
2017-08-24T02:17:05.937Z,23.7
2017-08-24T02:18:15.884Z,23.76
2017-08-24T02:19:25.670Z,23.73
2017-08-24T02:20:35.599Z,23.7
2017-08-24T02:21:45.216Z,23.68
2017-08-24T02:22:55.443Z,23.73
2017-08-24T02:24:05.373Z,23.69
2017-08-24T02:25:14.996Z,23.72
2017-08-24T02:26:24.906Z,23.76
2017-08-24T02:27:34.211Z,23.7
2017-08-24T02:28:44.128Z,23.7
2017-08-24T02:29:53.753Z,23.72
2017-08-24T02:31:04.051Z,23.66
2017-08-24T02:32:14.268Z,23.73
2017-08-24T02:33:24.197Z,23.73
2017-08-24T02:34:34.411Z,23.69
2017-08-24T02:35:44.043Z,23.65
2017-08-24T02:36:54.272Z,23.65
2017-08-24T02:38:04.188Z,23.63
2017-08-24T02:39:14.408Z,23.6
2017-08-24T02:40:24.021Z,23.6
2017-08-24T02:41:34.252Z,23.66
2017-08-24T02:42:44.172Z,23.6
2017-08-24T02:43:54.117Z,23.61
2017-08-24T02:45:03.733Z,23.61
2017-08-24T02:46:13.962Z,23.54
2017-08-24T02:47:23.888Z,23.54
2017-08-24T02:48:34.157Z,23.55
2017-08-24T02:49:44.073Z,23.55
2017-08-24T02:50:54.301Z,23.55
2017-08-24T02:52:04.528Z,23.51
2017-08-24T02:53:14.451Z,23.57
2017-08-24T02:54:24.454Z,23.43
2017-08-24T02:55:34.375Z,23.57
2017-08-24T02:56:44.605Z,23.51
2017-08-24T02:57:54.227Z,23.5
2017-08-24T02:59:03.534Z,23.51
2017-08-24T03:00:13.784Z,23.55
2017-08-24T03:01:24.029Z,23.54
2017-08-24T03:02:33.654Z,23.53
2017-08-24T03:03:43.578Z,23.51
2017-08-24T03:04:53.515Z,23.42
2017-08-24T03:06:03.856Z,23.39
2017-08-24T03:07:13.482Z,23.35
2017-08-24T03:08:23.440Z,23.39
2017-08-24T03:09:33.420Z,23.39
2017-08-24T03:10:43.034Z,23.35
2017-08-24T03:11:53.280Z,23.35
2017-08-24T03:13:03.581Z,23.35
2017-08-24T03:14:13.548Z,23.35
2017-08-24T03:15:23.778Z,23.35
2017-08-24T03:16:33.396Z,23.33
2017-08-24T03:17:43.301Z,23.35
2017-08-24T03:18:53.242Z,23.28
2017-08-24T03:20:02.874Z,23.27
2017-08-24T03:21:12.491Z,23.28
2017-08-24T03:22:22.724Z,23.31
2017-08-24T03:23:32.811Z,23.28
2017-08-24T03:24:42.734Z,23.25
2017-08-24T03:25:52.060Z,23.22
2017-08-24T03:27:02.297Z,23.2
2017-08-24T03:28:12.525Z,23.19
2017-08-24T03:29:22.769Z,23.2
2017-08-24T03:30:33.020Z,23.25
2017-08-24T03:31:42.936Z,23.22
2017-08-24T03:32:52.550Z,23.27
2017-08-24T03:34:02.165Z,23.25
2017-08-24T03:35:12.123Z,23.15
2017-08-24T03:36:22.027Z,23.16
2017-08-24T03:37:31.643Z,23.2
2017-08-24T03:38:41.556Z,23.19
2017-08-24T03:39:51.780Z,23.19
2017-08-24T03:41:01.752Z,23.2
2017-08-24T03:42:11.978Z,23.15
2017-08-24T03:43:21.585Z,23.16
2017-08-24T03:44:31.813Z,23.1
2017-08-24T03:45:41.418Z,23.13
2017-08-24T03:46:50.503Z,23.16
2017-08-24T03:48:00.725Z,23.17
2017-08-24T03:49:10.329Z,23.15
2017-08-24T03:50:20.250Z,23.2
2017-08-24T03:51:30.192Z,23.17
2017-08-24T03:52:40.282Z,23.15
2017-08-24T03:53:50.539Z,23.16
2017-08-24T03:55:00.775Z,23.17
2017-08-24T03:56:10.691Z,23.2
2017-08-24T03:57:20.599Z,23.17
2017-08-24T03:58:30.878Z,23.15
2017-08-24T03:59:39.875Z,23.16
2017-08-24T04:00:50.117Z,23.27
2017-08-24T04:01:59.740Z,23.16
2017-08-24T04:03:09.976Z,23.16
2017-08-24T04:04:19.937Z,23.22
2017-08-24T04:08:02.219Z,23.13
2017-08-24T04:09:12.148Z,23.2
2017-08-24T04:10:21.754Z,23.16
2017-08-24T04:14:04.045Z,23.15
2017-08-24T04:15:13.667Z,23.17
2017-08-24T04:16:23.619Z,23.17
2017-08-24T04:17:33.854Z,23.12
2017-08-24T04:18:43.770Z,23.16
2017-08-24T04:19:53.385Z,23.15
2017-08-24T04:21:03.460Z,23.01
2017-08-24T04:22:13.369Z,23.04
2017-08-24T04:23:23.306Z,23.13
2017-08-24T04:24:33.555Z,23.1
2017-08-24T04:25:43.173Z,23.07
2017-08-24T04:26:52.991Z,23.17
2017-08-24T04:28:03.212Z,23.09
2017-08-24T04:29:13.456Z,23.15
2017-08-24T04:30:23.700Z,23.15
2017-08-24T04:31:33.637Z,23.17
2017-08-24T04:32:43.436Z,23.15
2017-08-24T04:33:53.367Z,23.17
2017-08-24T04:35:02.989Z,23.17
2017-08-24T04:36:12.922Z,23.17
2017-08-24T04:37:22.859Z,23.09
2017-08-24T04:38:33.074Z,23.15
2017-08-24T04:39:42.991Z,23.2
2017-08-24T04:40:52.293Z,23.17
2017-08-24T04:42:02.510Z,23.17
2017-08-24T04:43:11.815Z,23.15
2017-08-24T04:44:22.033Z,23.15
2017-08-24T04:45:31.950Z,23.16
2017-08-24T04:46:42.193Z,23.07
2017-08-24T04:47:52.119Z,23.16
2017-08-24T04:49:02.351Z,23.1
2017-08-24T04:50:11.999Z,23.09
2017-08-24T04:51:21.621Z,23.13
2017-08-24T04:52:31.912Z,23.12
2017-08-24T04:53:41.850Z,23.12
2017-08-24T04:54:51.459Z,23.07
2017-08-24T04:56:01.400Z,23.07
2017-08-24T04:57:11.329Z,23.01
2017-08-24T04:58:21.252Z,23.04
2017-08-24T04:59:31.480Z,23.13
2017-08-24T05:00:41.702Z,23.07
2017-08-24T05:01:51.307Z,23.28
2017-08-24T05:03:01.227Z,23.27
2017-08-24T05:04:11.141Z,23.19
2017-08-24T05:05:21.358Z,23.32
2017-08-24T05:06:30.657Z,23.4
2017-08-24T05:07:40.717Z,23.4
2017-08-24T05:08:50.961Z,23.36
2017-08-24T05:10:00.880Z,23.31
2017-08-24T05:11:30.002Z,23.42
2017-08-24T05:12:40.226Z,23.5
2017-08-24T05:13:50.180Z,23.53
2017-08-24T05:15:00.408Z,23.54
2017-08-24T05:16:10.355Z,23.54
2017-08-24T05:17:20.285Z,23.58
2017-08-24T05:18:30.313Z,23.65
2017-08-24T05:19:40.245Z,23.58
2017-08-24T05:20:50.190Z,23.6
2017-08-24T05:22:00.621Z,23.63
2017-08-24T05:23:10.240Z,23.68
2017-08-24T05:24:20.224Z,23.63
2017-08-24T05:25:30.460Z,23.69
2017-08-24T05:26:40.370Z,23.85
2017-08-24T05:27:50.299Z,23.78
2017-08-24T05:29:00.218Z,23.83
2017-08-24T05:30:09.977Z,23.8
2017-08-24T05:31:19.892Z,23.8
2017-08-24T05:32:29.805Z,23.85
2017-08-24T05:33:40.017Z,23.95
2017-08-24T05:34:49.940Z,23.88
2017-08-24T05:36:00.211Z,23.93
2017-08-24T05:37:09.508Z,23.88
2017-08-24T05:38:19.120Z,23.91
2017-08-24T05:39:29.351Z,23.97
2017-08-24T05:40:39.579Z,24
2017-08-24T05:41:49.022Z,24.02
2017-08-24T05:42:59.250Z,23.94
2017-08-24T05:44:09.162Z,24
2017-08-24T05:45:19.381Z,24.05
2017-08-24T05:46:29.597Z,24.03
2017-08-24T05:47:39.967Z,24.05
2017-08-24T05:48:49.595Z,24.15
2017-08-24T05:49:58.593Z,24.09
2017-08-24T05:51:08.522Z,24.08
2017-08-24T05:52:18.461Z,24.08
2017-08-24T05:53:28.500Z,24.16
2017-08-24T05:54:38.421Z,24.15
2017-08-24T05:55:48.356Z,24.2
2017-08-24T05:56:57.352Z,24.1
2017-08-24T05:58:06.965Z,24.15
2017-08-24T05:59:17.198Z,24.18
2017-08-24T06:00:27.135Z,24.03
2017-08-24T06:01:37.361Z,24.1
2017-08-24T06:02:46.977Z,24.06
2017-08-24T06:03:57.582Z,24.13
2017-08-24T06:05:07.540Z,24.08
2017-08-24T06:06:17.775Z,24.1
2017-08-24T06:07:27.710Z,24.06
2017-08-24T06:08:37.002Z,24.13
2017-08-24T06:09:46.624Z,24.18
2017-08-24T06:10:56.235Z,24.25
2017-08-24T06:12:05.844Z,24.22
2017-08-24T06:13:16.080Z,24.25
2017-08-24T06:14:26.006Z,24.24
2017-08-24T06:15:35.942Z,24.27
2017-08-24T06:16:46.177Z,24.22
2017-08-24T06:17:56.413Z,24.09
2017-08-24T06:19:06.638Z,24.28
2017-08-24T06:20:16.559Z,24.28
2017-08-24T06:21:27.028Z,24.34
2017-08-24T06:22:36.657Z,24.34
2017-08-24T06:23:46.273Z,24.31
2017-08-24T06:24:56.514Z,24.4
2017-08-24T06:26:06.751Z,24.32
2017-08-24T06:27:16.987Z,24.46
2017-08-24T06:28:26.406Z,24.31
2017-08-24T06:29:36.039Z,24.45
2017-08-24T06:30:45.679Z,24.31
2017-08-24T06:31:55.290Z,24.43
2017-08-24T06:33:05.211Z,24.31
2017-08-24T06:34:15.171Z,24.46
2017-08-24T06:35:24.796Z,24.46
2017-08-24T06:36:34.094Z,24.46
2017-08-24T06:37:44.322Z,24.43
2017-08-24T06:38:54.563Z,24.55
2017-08-24T06:40:04.977Z,24.52
2017-08-24T06:41:15.207Z,24.43
2017-08-24T06:42:25.435Z,24.47
2017-08-24T06:43:35.066Z,24.53
2017-08-24T06:44:44.986Z,24.5
2017-08-24T06:45:55.064Z,24.52
2017-08-24T06:47:04.374Z,24.58
2017-08-24T06:48:14.331Z,24.61
2017-08-24T06:49:24.563Z,24.64
2017-08-24T06:50:34.804Z,24.57
2017-08-24T06:51:44.572Z,24.58
2017-08-24T06:52:54.183Z,24.67
2017-08-24T06:54:03.807Z,24.67
2017-08-24T06:55:13.127Z,24.61
2017-08-24T06:56:22.753Z,24.64
2017-08-24T06:57:33.018Z,24.58
2017-08-24T06:58:43.263Z,24.58
2017-08-24T06:59:53.186Z,24.68
2017-08-24T07:01:02.813Z,24.69
2017-08-24T07:02:12.752Z,24.76
2017-08-24T07:03:22.516Z,24.78
2017-08-24T07:04:32.762Z,24.77
2017-08-24T07:05:42.693Z,24.77
2017-08-24T07:06:52.326Z,24.83
2017-08-24T07:08:02.551Z,24.84
2017-08-24T07:09:12.932Z,24.76
2017-08-24T07:10:22.571Z,24.77
2017-08-24T07:11:32.493Z,24.78
2017-08-24T07:12:42.419Z,24.85
2017-08-24T07:13:52.345Z,24.84
2017-08-24T07:15:02.369Z,24.91
2017-08-24T07:16:12.300Z,24.88
2017-08-24T07:17:22.235Z,24.91
2017-08-24T07:18:31.843Z,24.91
2017-08-24T07:19:42.082Z,24.96
2017-08-24T07:20:52.168Z,24.96
2017-08-24T07:22:02.085Z,24.96
2017-08-24T07:23:12.034Z,25.02
2017-08-24T07:24:21.655Z,24.96
2017-08-24T07:25:31.298Z,25.02
2017-08-24T07:26:41.122Z,25.03
2017-08-24T07:27:50.472Z,25.09
2017-08-24T07:29:00.134Z,25.09
2017-08-24T07:30:10.368Z,25.08
2017-08-24T07:31:20.600Z,25.08
2017-08-24T07:32:30.058Z,25.08
2017-08-24T07:33:39.980Z,25.08
2017-08-24T07:34:49.601Z,25.14
2017-08-24T07:35:59.576Z,25.21
2017-08-24T07:37:09.230Z,25.21
2017-08-24T07:38:18.953Z,25.25
2017-08-24T07:39:28.902Z,25.21
2017-08-24T07:40:39.168Z,25.39
2017-08-24T07:41:49.413Z,25.62
2017-08-24T07:42:59.380Z,25.82
2017-08-24T07:44:09.353Z,25.97
2017-08-24T07:45:19.280Z,26.32
2017-08-24T07:46:29.236Z,26.55
2017-08-24T07:47:38.858Z,26.7
2017-08-24T07:48:49.103Z,26.84
2017-08-24T07:49:59.505Z,27
2017-08-24T07:51:09.420Z,27.25
2017-08-24T07:52:19.670Z,27.36
2017-08-24T07:53:29.904Z,27.34
2017-08-24T07:54:39.841Z,27.51
2017-08-24T07:55:49.837Z,27.67
2017-08-24T07:56:59.205Z,27.82
2017-08-24T07:58:08.870Z,27.84
2017-08-24T07:59:18.497Z,27.92
2017-08-24T08:00:28.446Z,28.03
2017-08-24T08:01:38.475Z,27.97
2017-08-24T08:02:48.710Z,27.99
2017-08-24T08:03:58.352Z,27.82
2017-08-24T08:05:08.002Z,27.84
2017-08-24T08:06:17.656Z,27.66
2017-08-24T08:07:27.130Z,27.57
2017-08-24T08:08:37.378Z,27.39
2017-08-24T08:09:47.303Z,27.34
2017-08-24T08:10:56.924Z,27.32
2017-08-24T08:12:06.864Z,27.13
2017-08-24T08:13:16.801Z,27.02
2017-08-24T08:14:27.036Z,26.89
2017-08-24T08:15:36.958Z,26.82
2017-08-24T08:16:46.584Z,26.85
2017-08-24T08:17:56.807Z,26.67
2017-08-24T08:19:06.490Z,26.57
2017-08-24T08:20:15.516Z,26.51
2017-08-24T08:21:25.437Z,26.45
2017-08-24T08:22:35.374Z,26.43
2017-08-24T08:23:44.678Z,26.39
2017-08-24T08:24:54.762Z,26.26
2017-08-24T08:26:03.763Z,26.29
2017-08-24T08:27:13.687Z,26.21
2017-08-24T08:28:23.939Z,26.17
2017-08-24T08:29:34.173Z,26.15
2017-08-24T08:30:43.492Z,26.13
2017-08-24T08:31:53.734Z,25.98
2017-08-24T08:33:03.666Z,25.98
2017-08-24T08:34:13.599Z,25.95
2017-08-24T08:35:23.823Z,25.98
2017-08-24T08:36:33.766Z,26.06
2017-08-24T08:37:43.740Z,25.97
2017-08-24T08:38:53.680Z,26.02
2017-08-24T08:40:03.617Z,25.95
2017-08-24T08:41:13.550Z,25.95
2017-08-24T08:42:24.127Z,25.91
2017-08-24T08:43:33.746Z,25.91
2017-08-24T08:44:42.413Z,25.95
2017-08-24T08:45:51.831Z,25.99
2017-08-24T08:47:00.827Z,25.92
2017-08-24T08:48:10.261Z,25.97
2017-08-24T08:49:19.869Z,25.91
2017-08-24T08:50:28.524Z,25.91
2017-08-24T08:51:37.189Z,25.88
2017-08-24T08:52:46.489Z,25.87
2017-08-24T08:53:56.096Z,25.85
2017-08-24T08:55:05.403Z,25.95
2017-08-24T08:56:14.379Z,25.82
2017-08-24T08:57:23.357Z,25.8
2017-08-24T08:58:32.320Z,25.9
2017-08-24T08:59:41.341Z,25.85
2017-08-24T09:00:50.316Z,25.76
2017-08-24T09:01:59.608Z,25.75
2017-08-24T09:03:08.592Z,25.85
2017-08-24T09:04:17.238Z,25.82
2017-08-24T09:05:26.376Z,25.77
2017-08-24T09:06:35.343Z,25.76
2017-08-24T09:07:44.693Z,25.82
2017-08-24T09:08:54.301Z,25.83
2017-08-24T09:10:03.928Z,25.76
2017-08-24T09:11:13.220Z,25.77
2017-08-24T09:12:22.507Z,25.75
2017-08-24T09:16:04.794Z,25.67
2017-08-24T09:17:13.807Z,25.7
2017-08-24T09:18:23.103Z,25.75
2017-08-24T09:19:32.402Z,25.72
2017-08-24T09:20:41.373Z,25.61
2017-08-24T09:21:50.074Z,25.62
2017-08-24T09:23:00.368Z,25.65
2017-08-24T09:24:09.967Z,25.67
2017-08-24T09:25:19.610Z,25.62
2017-08-24T09:26:28.607Z,25.65
2017-08-24T09:27:38.587Z,25.65
2017-08-24T09:28:47.246Z,25.62
2017-08-24T09:29:55.905Z,25.61
2017-08-24T09:31:04.563Z,25.62
2017-08-24T09:32:13.844Z,25.67
2017-08-24T09:33:23.143Z,25.6
2017-08-24T09:34:32.736Z,25.52
2017-08-24T09:35:42.033Z,25.57
2017-08-24T09:36:51.010Z,25.61
2017-08-24T09:37:59.985Z,25.61
2017-08-24T09:39:09.013Z,25.61
2017-08-24T09:40:18.651Z,25.57
2017-08-24T09:41:27.941Z,25.51
2017-08-24T09:42:37.245Z,25.55
2017-08-24T09:43:46.211Z,25.54
2017-08-24T09:44:55.806Z,25.57
2017-08-24T09:46:04.471Z,25.5
2017-08-24T09:47:13.813Z,25.43
2017-08-24T09:48:23.093Z,25.5
2017-08-24T09:49:32.378Z,25.33
2017-08-24T09:50:42.327Z,25.38
2017-08-24T09:51:51.342Z,25.42
2017-08-24T09:53:00.315Z,25.4
2017-08-24T09:54:09.299Z,25.4
2017-08-24T09:55:18.350Z,25.45
2017-08-24T09:56:27.819Z,25.43
2017-08-24T09:57:36.487Z,25.36
2017-08-24T09:58:45.146Z,25.4
2017-08-24T09:59:53.807Z,25.36
2017-08-24T10:01:03.103Z,25.38
2017-08-24T10:02:12.794Z,25.33
2017-08-24T10:03:21.755Z,25.45
2017-08-24T10:04:30.417Z,25.36
2017-08-24T10:05:39.704Z,25.4
2017-08-24T10:06:49.617Z,25.42
2017-08-24T10:07:59.078Z,25.38
2017-08-24T10:09:08.390Z,25.35
2017-08-24T10:10:17.985Z,25.4
2017-08-24T10:11:26.962Z,25.46
2017-08-24T10:12:36.283Z,25.51
2017-08-24T10:13:45.613Z,25.39
2017-08-24T10:14:54.600Z,25.51
2017-08-24T10:16:03.908Z,25.46
2017-08-24T10:17:13.220Z,25.4
2017-08-24T10:18:23.139Z,25.47
2017-08-24T10:19:32.589Z,25.47
2017-08-24T10:20:41.252Z,25.51
2017-08-24T10:21:50.236Z,25.46
2017-08-24T10:22:58.884Z,25.47
2017-08-24T10:24:07.887Z,25.47
2017-08-24T10:25:16.927Z,25.43
2017-08-24T10:26:25.973Z,25.38
2017-08-24T10:27:35.263Z,25.39
2017-08-24T10:28:44.414Z,25.4
2017-08-24T10:29:54.045Z,25.33
2017-08-24T10:31:03.401Z,25.33
2017-08-24T10:32:12.399Z,25.3
2017-08-24T10:33:21.399Z,25.42
2017-08-24T10:34:30.691Z,25.28
2017-08-24T10:35:39.971Z,25.3
2017-08-24T10:36:49.568Z,25.38
2017-08-24T10:37:58.915Z,25.28
2017-08-24T10:39:07.919Z,25.28
2017-08-24T10:40:17.545Z,25.28
2017-08-24T10:41:27.142Z,25.32
2017-08-24T10:42:36.266Z,25.24
2017-08-24T10:43:44.919Z,25.23
2017-08-24T10:44:53.581Z,25.25
2017-08-24T10:46:03.223Z,25.17
2017-08-24T10:47:11.884Z,25.23
2017-08-24T10:48:21.297Z,25.18
2017-08-24T10:49:30.265Z,25.2
2017-08-24T10:50:39.241Z,25.2
2017-08-24T10:51:48.211Z,25.18
2017-08-24T10:52:56.891Z,25.17
2017-08-24T10:54:05.869Z,25.18
2017-08-24T10:55:14.846Z,25.17
2017-08-24T10:56:24.452Z,25.1
2017-08-24T10:57:33.448Z,25.14
2017-08-24T10:58:42.742Z,25.14
2017-08-24T10:59:52.143Z,25.08
2017-08-24T11:01:01.441Z,25.06
2017-08-24T11:02:10.426Z,25.08
2017-08-24T11:03:20.053Z,25.08
2017-08-24T11:04:29.031Z,25.08
2017-08-24T11:05:38.219Z,25.13
2017-08-24T11:06:47.254Z,25.05
2017-08-24T11:07:56.227Z,25.1
2017-08-24T11:09:05.223Z,25.1
2017-08-24T11:10:13.874Z,25.1
2017-08-24T11:11:22.839Z,25.06
2017-08-24T11:12:31.815Z,25.1
2017-08-24T11:13:41.483Z,25.02
2017-08-24T11:14:50.804Z,25.09
2017-08-24T11:16:00.099Z,25.1
2017-08-24T11:17:09.389Z,25.03
2017-08-24T11:18:19.309Z,25.13
2017-08-24T11:19:28.958Z,25.06
2017-08-24T11:20:37.631Z,25.08
2017-08-24T11:21:46.928Z,25.03
2017-08-24T11:22:55.750Z,25.05
2017-08-24T11:24:05.027Z,25.03
2017-08-24T11:25:14.066Z,25.05
2017-08-24T11:26:23.067Z,25
2017-08-24T11:27:32.053Z,25.1
2017-08-24T11:28:40.882Z,25.09
2017-08-24T11:29:50.179Z,25.05
2017-08-24T11:30:59.149Z,25.1
2017-08-24T11:32:08.500Z,25.1
2017-08-24T11:33:18.136Z,25.08
2017-08-24T11:34:27.895Z,25.13
2017-08-24T11:35:36.561Z,25.03
2017-08-24T11:36:46.807Z,25.06
2017-08-24T11:37:56.108Z,25.08
2017-08-24T11:39:05.078Z,25.02
2017-08-24T11:40:13.730Z,25.05
2017-08-24T11:41:22.390Z,25.1
2017-08-24T11:42:31.360Z,25.08
2017-08-24T11:43:40.059Z,25
2017-08-24T11:44:49.777Z,25.08
2017-08-24T11:45:58.926Z,25.06
2017-08-24T11:47:07.556Z,25.09
2017-08-24T11:48:16.218Z,25.13
2017-08-24T11:49:25.532Z,25.1
2017-08-24T11:50:34.529Z,25.08
2017-08-24T11:51:43.723Z,25
2017-08-24T11:52:53.082Z,25.08
2017-08-24T11:54:02.412Z,25.1
2017-08-24T11:55:11.378Z,25.13
2017-08-24T11:56:21.062Z,25.08
2017-08-24T11:57:30.238Z,25.02
2017-08-24T11:58:39.867Z,25.09
2017-08-24T11:59:48.560Z,24.96
2017-08-24T12:00:57.635Z,25.06
2017-08-24T12:02:06.319Z,25.09
2017-08-24T12:03:15.729Z,25.03
2017-08-24T12:04:25.004Z,25.06
2017-08-24T12:05:34.321Z,25.03
2017-08-24T12:06:42.987Z,24.99
2017-08-24T12:07:52.283Z,25.06
2017-08-24T12:09:01.400Z,24.99
2017-08-24T12:10:10.704Z,24.98
2017-08-24T12:11:19.367Z,25.02
2017-08-24T12:12:28.350Z,25.08
2017-08-24T12:13:37.024Z,24.98
2017-08-24T12:14:46.142Z,25.02
2017-08-24T12:15:55.131Z,25.03
2017-08-24T12:17:04.419Z,24.99
2017-08-24T12:18:13.726Z,24.95
2017-08-24T12:19:22.695Z,24.99
2017-08-24T12:20:32.031Z,24.96
2017-08-24T12:21:41.954Z,24.96
2017-08-24T12:22:50.631Z,25
2017-08-24T12:23:59.916Z,24.98
2017-08-24T12:25:08.595Z,24.95
2017-08-24T12:26:17.353Z,24.93
2017-08-24T12:27:26.640Z,24.91
2017-08-24T12:28:35.650Z,24.96
2017-08-24T12:29:44.936Z,24.98
2017-08-24T12:30:54.259Z,24.95
2017-08-24T12:32:03.258Z,24.95
2017-08-24T12:33:12.254Z,24.87
2017-08-24T12:34:20.917Z,24.96
2017-08-24T12:35:29.919Z,24.98
2017-08-24T12:36:39.227Z,24.95
2017-08-24T12:37:48.534Z,24.98
2017-08-24T12:38:57.502Z,24.95
2017-08-24T12:40:06.166Z,24.93
2017-08-24T12:41:15.439Z,24.95
2017-08-24T12:42:24.421Z,24.93
2017-08-24T12:43:33.547Z,24.96
2017-08-24T12:44:42.558Z,24.93
2017-08-24T12:45:51.684Z,24.96
2017-08-24T12:47:00.726Z,24.95
2017-08-24T12:48:09.898Z,24.91
2017-08-24T12:49:18.559Z,24.91
2017-08-24T12:50:27.214Z,24.95
2017-08-24T12:51:36.656Z,24.93
2017-08-24T12:52:46.311Z,24.91
2017-08-24T12:53:55.513Z,24.93
2017-08-24T12:55:04.549Z,24.93
2017-08-24T12:56:13.238Z,24.91
2017-08-24T12:57:22.202Z,24.93
2017-08-24T12:58:31.205Z,24.96
2017-08-24T12:59:39.873Z,24.95
2017-08-24T13:00:48.831Z,24.93
2017-08-24T13:01:58.159Z,24.91
2017-08-24T13:03:06.804Z,24.93
2017-08-24T13:04:15.465Z,24.95
2017-08-24T13:05:24.435Z,24.99
2017-08-24T13:06:33.452Z,24.9
2017-08-24T13:07:42.744Z,24.95
2017-08-24T13:08:51.735Z,24.95
2017-08-24T13:10:00.712Z,24.9
2017-08-24T13:11:09.701Z,24.96
2017-08-24T13:12:18.593Z,24.98
2017-08-24T13:13:27.884Z,24.93
2017-08-24T13:14:37.160Z,24.9
2017-08-24T13:15:46.136Z,25.02
2017-08-24T13:16:55.444Z,25.06
2017-08-24T13:18:04.571Z,24.96
2017-08-24T13:19:13.266Z,24.99
2017-08-24T13:20:22.858Z,24.95
2017-08-24T13:21:31.861Z,24.99
2017-08-24T13:22:41.167Z,25.03
2017-08-24T13:23:50.492Z,24.96
2017-08-24T13:24:59.474Z,24.91
2017-08-24T13:26:09.449Z,24.9
2017-08-24T13:27:19.679Z,25.06
2017-08-24T13:28:28.660Z,24.95
2017-08-24T13:29:37.999Z,24.96
2017-08-24T13:30:47.030Z,25
2017-08-24T13:31:56.004Z,24.96
2017-08-24T13:33:05.007Z,25.02
2017-08-24T13:34:13.989Z,24.96
2017-08-24T13:35:23.585Z,24.95
2017-08-24T13:36:32.576Z,25.09
2017-08-24T13:37:41.244Z,24.99
2017-08-24T13:38:50.215Z,25.06
2017-08-24T13:39:58.878Z,24.99
2017-08-24T13:41:09.152Z,25.03
2017-08-24T13:42:18.765Z,25.06
2017-08-24T13:43:27.753Z,25.03
2017-08-24T13:44:36.717Z,25.02
2017-08-24T13:45:46.023Z,25.03
2017-08-24T13:46:55.466Z,25.14
2017-08-24T13:48:04.438Z,25.05
2017-08-24T13:49:13.744Z,25.03
2017-08-24T13:50:23.037Z,25.09
2017-08-24T13:51:32.962Z,25.06
2017-08-24T13:52:41.737Z,25.05
2017-08-24T13:53:51.340Z,25.1
2017-08-24T13:55:00.969Z,25.08
2017-08-24T13:56:09.940Z,25.13
2017-08-24T13:57:19.552Z,25.09
2017-08-24T13:58:28.833Z,25.14
2017-08-24T13:59:38.184Z,25.08
2017-08-24T14:00:47.176Z,25.06
2017-08-24T14:01:56.173Z,25.08
2017-08-24T14:03:04.833Z,25.13
2017-08-24T14:04:13.555Z,25.1
2017-08-24T14:05:22.217Z,25.09
2017-08-24T14:06:31.823Z,25.08
2017-08-24T14:07:40.494Z,25.15
2017-08-24T14:08:49.174Z,25.08
2017-08-24T14:09:58.939Z,25.17
2017-08-24T14:11:08.553Z,25.09
2017-08-24T14:12:17.830Z,25.13
2017-08-24T14:13:27.121Z,25.09
2017-08-24T14:14:36.730Z,25.14
2017-08-24T14:15:45.551Z,25.08
2017-08-24T14:16:54.863Z,25.06
2017-08-24T14:18:04.155Z,25.09
2017-08-24T14:19:13.482Z,25.14
2017-08-24T14:20:22.468Z,25.08
2017-08-24T14:21:31.591Z,25.08
2017-08-24T14:22:40.580Z,25.09
2017-08-24T14:23:49.560Z,25.15
2017-08-24T14:24:58.523Z,25.1
2017-08-24T14:26:07.496Z,25.08
2017-08-24T14:27:16.649Z,25.09
2017-08-24T14:28:25.644Z,25.13
2017-08-24T14:29:35.300Z,25.09
2017-08-24T14:30:44.592Z,25.14
2017-08-24T14:31:53.892Z,25.15
2017-08-24T14:33:03.037Z,25.13
2017-08-24T14:34:11.700Z,25.08
2017-08-24T14:35:21.017Z,25.06
2017-08-24T14:36:29.698Z,25.03
2017-08-24T14:37:38.689Z,25.09
2017-08-24T14:38:48.127Z,25.14
2017-08-24T14:39:57.096Z,25.13
2017-08-24T14:41:06.732Z,25.03
2017-08-24T14:42:16.027Z,25.08
2017-08-24T14:43:25.008Z,25.03
2017-08-24T14:44:33.834Z,25.08
2017-08-24T14:45:42.823Z,25.08
2017-08-24T14:46:52.427Z,25.09
2017-08-24T14:48:01.735Z,25.08
2017-08-24T14:49:11.038Z,25.09
2017-08-24T14:50:19.696Z,25.05
2017-08-24T14:51:28.371Z,25.06
2017-08-24T14:52:37.680Z,24.96
2017-08-24T14:53:46.352Z,25.06
2017-08-24T14:54:55.338Z,25.03
2017-08-24T14:56:04.421Z,25.02
2017-08-24T14:57:13.722Z,25.06
2017-08-24T14:58:22.717Z,25.06
2017-08-24T14:59:31.712Z,25.02
2017-08-24T15:00:40.992Z,25.09
2017-08-24T15:01:50.278Z,25.06
2017-08-24T15:02:59.258Z,25.13
2017-08-24T15:04:08.242Z,25.08
2017-08-24T15:05:17.204Z,25.1
2017-08-24T15:06:26.181Z,25.08
2017-08-24T15:07:35.000Z,25.09
2017-08-24T15:08:44.284Z,25.03